sensor_id;sensor_type;location;lat;lon;timestamp;pressure;altitude;pressure_sealevel;temperature;humidity
60427;BME280;46274;47.168;27.604;2023-02-13T00:00:48;101866.78;;;-1.91;71.40
60427;BME280;46274;47.168;27.604;2023-02-13T00:06:51;101815.59;;;-2.23;71.77
60427;BME280;46274;47.168;27.604;2023-02-13T00:12:55;101889.91;;;-1.94;72.04
60427;BME280;46274;47.168;27.604;2023-02-13T00:18:57;101898.78;;;-1.95;72.08
60427;BME280;46274;47.168;27.604;2023-02-13T00:24:59;101897.94;;;-1.96;72.06
60427;BME280;46274;47.168;27.604;2023-02-13T00:31:03;101842.34;;;-2.29;72.08
60427;BME280;46274;47.168;27.604;2023-02-13T00:37:06;101911.03;;;-1.91;72.25
60427;BME280;46274;47.168;27.604;2023-02-13T00:43:09;101878.44;;;-1.97;72.17
60427;BME280;46274;47.168;27.604;2023-02-13T00:49:11;101875.75;;;-1.95;71.95
60427;BME280;46274;47.168;27.604;2023-02-13T00:55:13;101861.97;;;-2.06;72.43
60427;BME280;46274;47.168;27.604;2023-02-13T01:01:16;101873.31;;;-2.01;72.23
60427;BME280;46274;47.168;27.604;2023-02-13T01:07:18;101839.59;;;-2.26;72.36
60427;BME280;46274;47.168;27.604;2023-02-13T01:13:22;101649.88;;;-3.47;72.27
60427;BME280;46274;47.168;27.604;2023-02-13T01:19:24;101871.78;;;-2.08;72.10
60427;BME280;46274;47.168;27.604;2023-02-13T01:25:27;101875.34;;;-1.83;70.87
60427;BME280;46274;47.168;27.604;2023-02-13T01:31:29;101877.44;;;-1.92;70.88
60427;BME280;46274;47.168;27.604;2023-02-13T01:37:32;101887.25;;;-2.21;72.08
60427;BME280;46274;47.168;27.604;2023-02-13T01:43:59;101881.16;;;-2.25;72.06
60427;BME280;46274;47.168;27.604;2023-02-13T02:02:12;101856.75;;;-2.36;71.60
60427;BME280;46274;47.168;27.604;2023-02-13T02:08:16;101821.84;;;-2.50;71.33
60427;BME280;46274;47.168;27.604;2023-02-13T02:14:19;101875.66;;;-2.18;70.85
60427;BME280;46274;47.168;27.604;2023-02-13T02:20:51;101884.09;;;-2.06;70.38
60427;BME280;46274;47.168;27.604;2023-02-13T02:46:27;101782.88;;;-3.04;70.92
60427;BME280;46274;47.168;27.604;2023-02-13T02:59:05;101879.31;;;-2.79;72.03
60427;BME280;46274;47.168;27.604;2023-02-13T03:05:29;101858.09;;;-2.79;71.55
60427;BME280;46274;47.168;27.604;2023-02-13T03:11:53;101845.50;;;-2.72;71.39
60427;BME280;46274;47.168;27.604;2023-02-13T03:18:16;101888.00;;;-2.46;71.08
60427;BME280;46274;47.168;27.604;2023-02-13T03:24:44;101892.22;;;-2.67;72.24
60427;BME280;46274;47.168;27.604;2023-02-13T03:37:15;101830.53;;;-3.33;73.72
60427;BME280;46274;47.168;27.604;2023-02-13T03:50:03;101820.41;;;-2.90;71.64
60427;BME280;46274;47.168;27.604;2023-02-13T03:56:08;101885.84;;;-2.61;72.24
60427;BME280;46274;47.168;27.604;2023-02-13T04:02:33;101894.50;;;-2.54;71.71
60427;BME280;46274;47.168;27.604;2023-02-13T04:08:42;101889.38;;;-2.60;72.19
60427;BME280;46274;47.168;27.604;2023-02-13T04:15:13;101826.06;;;-3.01;71.89
60427;BME280;46274;47.168;27.604;2023-02-13T04:21:17;101873.63;;;-2.67;71.45
60427;BME280;46274;47.168;27.604;2023-02-13T04:27:20;101875.47;;;-2.69;71.37
60427;BME280;46274;47.168;27.604;2023-02-13T04:33:22;101789.59;;;-3.22;71.62
60427;BME280;46274;47.168;27.604;2023-02-13T04:39:25;101875.66;;;-2.75;71.82
60427;BME280;46274;47.168;27.604;2023-02-13T04:45:27;101822.03;;;-3.14;71.79
60427;BME280;46274;47.168;27.604;2023-02-13T04:51:30;101851.31;;;-3.17;72.26
60427;BME280;46274;47.168;27.604;2023-02-13T04:57:32;101848.03;;;-2.97;71.65
60427;BME280;46274;47.168;27.604;2023-02-13T05:03:34;101872.13;;;-3.05;72.85
60427;BME280;46274;47.168;27.604;2023-02-13T05:09:37;101804.59;;;-3.23;72.14
60427;BME280;46274;47.168;27.604;2023-02-13T05:15:42;101873.09;;;-3.08;73.39
60427;BME280;46274;47.168;27.604;2023-02-13T05:21:44;101855.81;;;-3.21;73.74
60427;BME280;46274;47.168;27.604;2023-02-13T05:28:07;101857.38;;;-3.14;73.57
60427;BME280;46274;47.168;27.604;2023-02-13T05:34:28;101855.66;;;-3.15;73.24
60427;BME280;46274;47.168;27.604;2023-02-13T05:40:30;101852.69;;;-3.04;73.04
60427;BME280;46274;47.168;27.604;2023-02-13T05:46:33;101855.19;;;-2.99;73.18
60427;BME280;46274;47.168;27.604;2023-02-13T05:52:39;101869.63;;;-2.80;72.11
60427;BME280;46274;47.168;27.604;2023-02-13T05:58:42;101813.16;;;-3.13;72.04
60427;BME280;46274;47.168;27.604;2023-02-13T06:04:49;101868.06;;;-2.57;71.52
60427;BME280;46274;47.168;27.604;2023-02-13T06:10:53;101761.34;;;-3.23;72.47
60427;BME280;46274;47.168;27.604;2023-02-13T06:16:55;101860.84;;;-2.26;72.19
60427;BME280;46274;47.168;27.604;2023-02-13T06:23:00;101857.81;;;-1.63;71.84
60427;BME280;46274;47.168;27.604;2023-02-13T06:29:02;101838.53;;;-1.45;71.62
60427;BME280;46274;47.168;27.604;2023-02-13T06:35:07;101844.41;;;-1.12;71.02
60427;BME280;46274;47.168;27.604;2023-02-13T06:41:10;101774.56;;;-1.40;70.71
60427;BME280;46274;47.168;27.604;2023-02-13T06:47:13;101854.50;;;-0.74;70.39
60427;BME280;46274;47.168;27.604;2023-02-13T06:53:15;101852.72;;;-0.52;70.13
60427;BME280;46274;47.168;27.604;2023-02-13T06:59:20;101817.59;;;-0.39;69.45
60427;BME280;46274;47.168;27.604;2023-02-13T07:05:22;101811.00;;;-0.09;69.18
60427;BME280;46274;47.168;27.604;2023-02-13T07:11:24;101823.47;;;0.11;67.83
60427;BME280;46274;47.168;27.604;2023-02-13T07:17:27;101788.50;;;0.19;67.54
60427;BME280;46274;47.168;27.604;2023-02-13T07:23:32;101818.09;;;0.73;67.42
60427;BME280;46274;47.168;27.604;2023-02-13T07:29:35;101830.88;;;1.04;66.81
60427;BME280;46274;47.168;27.604;2023-02-13T07:35:44;101733.19;;;0.62;66.26
60427;BME280;46274;47.168;27.604;2023-02-13T07:41:48;101838.66;;;1.27;66.48
60427;BME280;46274;47.168;27.604;2023-02-13T07:47:50;101833.59;;;1.40;66.06
60427;BME280;46274;47.168;27.604;2023-02-13T07:53:53;101844.56;;;1.53;66.53
60427;BME280;46274;47.168;27.604;2023-02-13T07:59:57;101841.41;;;1.62;65.66
60427;BME280;46274;47.168;27.604;2023-02-13T08:06:00;101831.22;;;1.70;65.15
60427;BME280;46274;47.168;27.604;2023-02-13T08:12:03;101786.50;;;1.74;65.18
60427;BME280;46274;47.168;27.604;2023-02-13T08:18:13;101826.19;;;2.34;65.06
60427;BME280;46274;47.168;27.604;2023-02-13T08:24:18;101687.06;;;1.85;64.55
60427;BME280;46274;47.168;27.604;2023-02-13T08:30:30;101801.75;;;3.06;64.45
60427;BME280;46274;47.168;27.604;2023-02-13T08:36:41;101793.56;;;3.41;64.44
60427;BME280;46274;47.168;27.604;2023-02-13T08:42:43;101661.72;;;3.04;63.53
60427;BME280;46274;47.168;27.604;2023-02-13T08:48:46;101784.94;;;3.97;63.76
60427;BME280;46274;47.168;27.604;2023-02-13T08:54:53;101685.88;;;3.65;63.63
60427;BME280;46274;47.168;27.604;2023-02-13T09:01:15;101759.69;;;4.15;63.43
60427;BME280;46274;47.168;27.604;2023-02-13T09:07:24;101728.94;;;3.16;63.14
60427;BME280;46274;47.168;27.604;2023-02-13T09:20:11;101652.84;;;3.34;62.59
60427;BME280;46274;47.168;27.604;2023-02-13T09:26:26;101697.63;;;3.62;61.87
60427;BME280;46274;47.168;27.604;2023-02-13T09:32:43;101638.88;;;3.29;62.92
60427;BME280;46274;47.168;27.604;2023-02-13T09:45:19;101676.19;;;3.32;63.95
60427;BME280;46274;47.168;27.604;2023-02-13T09:51:47;101727.78;;;3.66;64.18
60427;BME280;46274;47.168;27.604;2023-02-13T09:58:18;101705.16;;;3.56;64.68
60427;BME280;46274;47.168;27.604;2023-02-13T10:04:40;101674.53;;;3.90;63.73
60427;BME280;46274;47.168;27.604;2023-02-13T10:18:20;101650.06;;;4.37;63.79
60427;BME280;46274;47.168;27.604;2023-02-13T10:24:40;101620.34;;;4.41;63.61
60427;BME280;46274;47.168;27.604;2023-02-13T10:30:55;101488.16;;;3.83;64.07
60427;BME280;46274;47.168;27.604;2023-02-13T10:37:20;101496.63;;;4.04;64.28
60427;BME280;46274;47.168;27.604;2023-02-13T10:43:27;101622.44;;;4.91;63.99
60427;BME280;46274;47.168;27.604;2023-02-13T11:02:25;101601.53;;;5.09;64.51
60427;BME280;46274;47.168;27.604;2023-02-13T11:08:39;101599.91;;;5.07;64.09
60427;BME280;46274;47.168;27.604;2023-02-13T11:21:07;101420.09;;;4.25;64.36
60427;BME280;46274;47.168;27.604;2023-02-13T11:27:12;101558.63;;;5.08;64.29
60427;BME280;46274;47.168;27.604;2023-02-13T11:39:21;101468.47;;;4.91;64.48
60427;BME280;46274;47.168;27.604;2023-02-13T11:45:25;101465.13;;;5.00;64.28
60427;BME280;46274;47.168;27.604;2023-02-13T11:51:47;101541.94;;;5.55;63.92
60427;BME280;46274;47.168;27.604;2023-02-13T11:58:22;101346.66;;;4.66;64.47
60427;BME280;46274;47.168;27.604;2023-02-13T12:04:26;101476.09;;;5.61;63.55
60427;BME280;46274;47.168;27.604;2023-02-13T12:10:35;101476.06;;;5.74;63.48
60427;BME280;46274;47.168;27.604;2023-02-13T12:16:48;101508.16;;;6.14;63.19
60427;BME280;46274;47.168;27.604;2023-02-13T12:30:02;101496.09;;;6.19;62.62
60427;BME280;46274;47.168;27.604;2023-02-13T13:13:53;101478.34;;;6.17;63.01
60427;BME280;46274;47.168;27.604;2023-02-13T13:26:36;101478.81;;;6.10;63.71
60427;BME280;46274;47.168;27.604;2023-02-13T13:32:42;101269.50;;;4.94;63.87
60427;BME280;46274;47.168;27.604;2023-02-13T13:51:23;101413.25;;;5.75;64.82
60427;BME280;46274;47.168;27.604;2023-02-13T14:03:41;101406.59;;;5.67;64.30
60427;BME280;46274;47.168;27.604;2023-02-13T14:09:48;101425.78;;;5.87;63.67
60427;BME280;46274;47.168;27.604;2023-02-13T14:15:51;101462.25;;;5.91;64.20
60427;BME280;46274;47.168;27.604;2023-02-13T14:28:25;101463.69;;;5.84;65.41
60427;BME280;46274;47.168;27.604;2023-02-13T14:34:38;101450.00;;;5.87;64.95
60427;BME280;46274;47.168;27.604;2023-02-13T14:40:45;101438.13;;;5.65;65.54
60427;BME280;46274;47.168;27.604;2023-02-13T14:46:52;101328.47;;;4.82;66.01
60427;BME280;46274;47.168;27.604;2023-02-13T14:53:02;101346.94;;;5.13;66.14
60427;BME280;46274;47.168;27.604;2023-02-13T14:59:21;101427.56;;;5.62;66.21
60427;BME280;46274;47.168;27.604;2023-02-13T15:05:32;101415.72;;;5.28;67.33
60427;BME280;46274;47.168;27.604;2023-02-13T15:11:38;101378.53;;;5.09;67.18
60427;BME280;46274;47.168;27.604;2023-02-13T15:17:44;101376.81;;;5.08;67.31
60427;BME280;46274;47.168;27.604;2023-02-13T15:23:53;101333.53;;;4.74;67.30
60427;BME280;46274;47.168;27.604;2023-02-13T15:30:13;101413.25;;;5.12;67.08
60427;BME280;46274;47.168;27.604;2023-02-13T15:36:23;101337.28;;;4.59;67.29
60427;BME280;46274;47.168;27.604;2023-02-13T15:42:39;101421.31;;;4.99;67.52
60427;BME280;46274;47.168;27.604;2023-02-13T15:48:42;101427.13;;;4.93;67.54
60427;BME280;46274;47.168;27.604;2023-02-13T15:54:51;101423.00;;;4.88;67.59
60427;BME280;46274;47.168;27.604;2023-02-13T16:01:06;101420.84;;;4.80;67.73
60427;BME280;46274;47.168;27.604;2023-02-13T16:07:11;101431.56;;;4.67;68.29
60427;BME280;46274;47.168;27.604;2023-02-13T16:13:27;101422.00;;;4.50;68.32
60427;BME280;46274;47.168;27.604;2023-02-13T16:19:53;101437.81;;;4.55;68.75
60427;BME280;46274;47.168;27.604;2023-02-13T16:26:06;101437.06;;;4.66;68.32
60427;BME280;46274;47.168;27.604;2023-02-13T16:32:20;101317.75;;;3.91;68.78
60427;BME280;46274;47.168;27.604;2023-02-13T16:44:35;101370.78;;;4.53;67.75
60427;BME280;46274;47.168;27.604;2023-02-13T16:50:41;101411.84;;;4.81;67.65
60427;BME280;46274;47.168;27.604;2023-02-13T16:57:05;101409.03;;;4.82;67.20
60427;BME280;46274;47.168;27.604;2023-02-13T17:03:22;101401.31;;;4.65;67.59
60427;BME280;46274;47.168;27.604;2023-02-13T17:09:38;101238.16;;;3.39;68.64
60427;BME280;46274;47.168;27.604;2023-02-13T17:15:48;101342.25;;;4.00;69.24
60427;BME280;46274;47.168;27.604;2023-02-13T17:21:50;101321.31;;;3.92;69.43
60427;BME280;46274;47.168;27.604;2023-02-13T17:28:34;101328.22;;;4.09;68.43
60427;BME280;46274;47.168;27.604;2023-02-13T17:34:36;101194.97;;;3.31;68.33
60427;BME280;46274;47.168;27.604;2023-02-13T17:40:40;101360.03;;;4.28;68.55
60427;BME280;46274;47.168;27.604;2023-02-13T17:46:43;101360.47;;;4.34;68.55
60427;BME280;46274;47.168;27.604;2023-02-13T17:52:54;101348.66;;;4.37;68.74
60427;BME280;46274;47.168;27.604;2023-02-13T17:58:56;101303.81;;;4.26;68.62
60427;BME280;46274;47.168;27.604;2023-02-13T18:04:58;101280.81;;;4.22;68.54
60427;BME280;46274;47.168;27.604;2023-02-13T18:11:03;101311.13;;;4.50;68.68
60427;BME280;46274;47.168;27.604;2023-02-13T18:17:10;101310.13;;;4.51;68.63
60427;BME280;46274;47.168;27.604;2023-02-13T18:23:15;101295.63;;;4.28;68.99
60427;BME280;46274;47.168;27.604;2023-02-13T18:29:17;101315.28;;;4.41;68.54
60427;BME280;46274;47.168;27.604;2023-02-13T18:35:22;101176.88;;;3.47;68.62
60427;BME280;46274;47.168;27.604;2023-02-13T18:41:26;101319.47;;;4.32;68.72
60427;BME280;46274;47.168;27.604;2023-02-13T18:47:29;101312.56;;;4.15;68.71
60427;BME280;46274;47.168;27.604;2023-02-13T18:53:34;101323.53;;;4.25;68.34
60427;BME280;46274;47.168;27.604;2023-02-13T18:59:36;101323.41;;;4.14;68.34
60427;BME280;46274;47.168;27.604;2023-02-13T19:06:03;101290.19;;;3.89;68.75
60427;BME280;46274;47.168;27.604;2023-02-13T19:12:08;101215.75;;;3.40;69.18
60427;BME280;46274;47.168;27.604;2023-02-13T19:18:20;101225.56;;;3.54;69.04
60427;BME280;46274;47.168;27.604;2023-02-13T19:24:25;101321.78;;;4.11;68.97
60427;BME280;46274;47.168;27.604;2023-02-13T19:30:28;101294.81;;;3.87;68.62
60427;BME280;46274;47.168;27.604;2023-02-13T19:36:30;101315.31;;;3.88;69.05
60427;BME280;46274;47.168;27.604;2023-02-13T19:42:35;101346.03;;;4.10;68.84
60427;BME280;46274;47.168;27.604;2023-02-13T19:48:43;101332.81;;;4.07;68.52
60427;BME280;46274;47.168;27.604;2023-02-13T19:55:04;101223.63;;;3.43;68.03
60427;BME280;46274;47.168;27.604;2023-02-13T20:01:15;101251.72;;;3.63;68.26
60427;BME280;46274;47.168;27.604;2023-02-13T20:07:20;101062.44;;;2.57;68.09
60427;BME280;46274;47.168;27.604;2023-02-13T20:13:22;101195.09;;;3.42;67.82
60427;BME280;46274;47.168;27.604;2023-02-13T20:19:24;101186.19;;;3.42;66.76
60427;BME280;46274;47.168;27.604;2023-02-13T20:25:28;101271.03;;;3.96;66.49
60427;BME280;46274;47.168;27.604;2023-02-13T20:31:35;101329.97;;;4.35;66.03
60427;BME280;46274;47.168;27.604;2023-02-13T20:37:38;101214.34;;;3.62;65.95
60427;BME280;46274;47.168;27.604;2023-02-13T20:43:46;101246.09;;;3.81;65.52
60427;BME280;46274;47.168;27.604;2023-02-13T20:49:49;101237.81;;;3.71;65.48
60427;BME280;46274;47.168;27.604;2023-02-13T20:55:52;101230.53;;;3.73;65.35
60427;BME280;46274;47.168;27.604;2023-02-13T21:01:59;101330.22;;;4.45;65.09
60427;BME280;46274;47.168;27.604;2023-02-13T21:08:06;101347.47;;;4.41;65.31
60427;BME280;46274;47.168;27.604;2023-02-13T21:14:15;101322.91;;;4.47;66.02
60427;BME280;46274;47.168;27.604;2023-02-13T21:20:18;101316.88;;;4.44;66.72
60427;BME280;46274;47.168;27.604;2023-02-13T21:26:21;101320.97;;;4.36;65.82
60427;BME280;46274;47.168;27.604;2023-02-13T21:32:27;101291.13;;;4.28;65.55
60427;BME280;46274;47.168;27.604;2023-02-13T21:38:35;101311.53;;;4.44;65.59
60427;BME280;46274;47.168;27.604;2023-02-13T21:44:53;101243.47;;;4.19;65.15
60427;BME280;46274;47.168;27.604;2023-02-13T21:51:07;101247.75;;;4.09;66.52
60427;BME280;46274;47.168;27.604;2023-02-13T21:57:22;101294.34;;;4.33;67.30
60427;BME280;46274;47.168;27.604;2023-02-13T22:03:31;101278.47;;;4.30;67.49
60427;BME280;46274;47.168;27.604;2023-02-13T22:09:39;101249.59;;;4.21;67.38
60427;BME280;46274;47.168;27.604;2023-02-13T22:15:42;101258.50;;;4.34;67.95
60427;BME280;46274;47.168;27.604;2023-02-13T22:21:47;101240.25;;;4.14;68.28
60427;BME280;46274;47.168;27.604;2023-02-13T22:27:52;101237.25;;;4.31;68.62
60427;BME280;46274;47.168;27.604;2023-02-13T22:33:57;101195.59;;;4.13;68.80
60427;BME280;46274;47.168;27.604;2023-02-13T22:40:06;101223.09;;;4.29;68.56
60427;BME280;46274;47.168;27.604;2023-02-13T22:46:23;101196.50;;;4.26;67.82
60427;BME280;46274;47.168;27.604;2023-02-13T22:52:26;101193.28;;;4.21;68.17
60427;BME280;46274;47.168;27.604;2023-02-13T22:58:29;101185.09;;;4.23;68.36
60427;BME280;46274;47.168;27.604;2023-02-13T23:04:32;101191.00;;;4.15;69.10
60427;BME280;46274;47.168;27.604;2023-02-13T23:10:34;101149.38;;;3.97;68.70
60427;BME280;46274;47.168;27.604;2023-02-13T23:16:45;101181.47;;;4.11;68.66
60427;BME280;46274;47.168;27.604;2023-02-13T23:23:05;101182.72;;;4.18;68.56
60427;BME280;46274;47.168;27.604;2023-02-13T23:29:21;101119.25;;;3.93;68.93
60427;BME280;46274;47.168;27.604;2023-02-13T23:35:27;101164.09;;;4.17;69.23
60427;BME280;46274;47.168;27.604;2023-02-13T23:41:30;101132.75;;;4.17;69.78
60427;BME280;46274;47.168;27.604;2023-02-13T23:47:39;101046.88;;;3.80;69.95
60427;BME280;46274;47.168;27.604;2023-02-13T23:53:41;101082.34;;;3.97;70.57
60427;BME280;46274;47.168;27.604;2023-02-13T23:59:44;101127.59;;;4.14;71.31
